Time;durP1;ratioP1;P1;durP2;ratioP2;P2;SDS_P1;SDS_P2;PMS_P1;PMS_P2;Temp;Humidity;BMP_temperature;BMP_pressure;BME280_temperature;BME280_humidity;BME280_pressure;Samples;Min_cycle;Max_cycle;Signal;HPM_P1;HPM_P2
2022/01/08 00:00:54;;;;;;;19.4;16.4;;;;;;;1.1;100.0;100760;;;;
2022/01/08 00:06:54;;;;;;;18.6;16.4;;;;;;;1.0;100.0;100760;;;;
2022/01/08 00:18:54;;;;;;;18.6;16.4;;;;;;;0.9;100.0;100770;;;;
2022/01/08 00:22:54;;;;;;;18.6;16.4;;;;;;;1.0;100.0;100770;;;;
2022/01/08 00:24:54;;;;;;;18.6;16.4;;;;;;;0.9;100.0;100770;;;;
2022/01/08 00:26:54;;;;;;;19.5;17.4;;;;;;;1.0;100.0;100770;;;;
2022/01/08 00:28:54;;;;;;;19.5;17.4;;;;;;;0.9;100.0;100770;;;;
2022/01/08 00:30:54;;;;;;;19.5;17.4;;;;;;;1.0;100.0;100770;;;;
2022/01/08 00:32:54;;;;;;;19.5;17.4;;;;;;;0.9;100.0;100770;;;;
2022/01/08 00:42:54;;;;;;;19.5;17.4;;;;;;;0.8;100.0;100790;;;;
2022/01/08 00:46:55;;;;;;;19.6;17.5;;;;;;;0.9;100.0;100780;;;;
2022/01/08 00:50:58;;;;;;;19.6;17.5;;;;;;;0.8;100.0;100790;;;;
2022/01/08 00:52:58;;;;;;;19.6;17.5;;;;;;;0.7;100.0;100790;;;;
2022/01/08 00:54:54;;;;;;;19.6;17.5;;;;;;;0.8;100.0;100800;;;;
2022/01/08 01:00:54;;;;;;;19.6;17.5;;;;;;;0.7;100.0;100800;;;;
2022/01/08 01:04:54;;;;;;;19.6;17.5;;;;;;;0.8;100.0;100800;;;;
2022/01/08 01:06:54;;;;;;;19.7;16.6;;;;;;;0.7;100.0;100800;;;;
2022/01/08 01:14:54;;;;;;;19.7;16.6;;;;;;;0.8;100.0;100810;;;;
2022/01/08 01:16:54;;;;;;;19.7;16.6;;;;;;;0.7;100.0;100800;;;;
2022/01/08 01:48:54;;;;;;;18.3;16.1;;;;;;;0.7;100.0;100810;;;;
2022/01/08 01:52:54;;;;;;;18.3;16.1;;;;;;;0.6;100.0;100810;;;;
2022/01/08 02:04:54;;;;;;;18.3;16.1;;;;;;;0.5;100.0;100800;;;;
2022/01/08 02:12:54;;;;;;;20.1;16.7;;;;;;;0.4;100.0;100800;;;;
2022/01/08 02:16:54;;;;;;;20.1;16.7;;;;;;;0.5;100.0;100800;;;;
2022/01/08 02:18:54;;;;;;;20.1;16.7;;;;;;;0.4;100.0;100800;;;;
2022/01/08 02:28:54;;;;;;;20.5;18.2;;;;;;;0.5;100.0;100800;;;;
2022/01/08 02:32:54;;;;;;;20.5;18.2;;;;;;;0.4;100.0;100790;;;;
2022/01/08 02:40:58;;;;;;;20.5;18.2;;;;;;;0.3;100.0;100800;;;;
2022/01/08 02:46:54;;;;;;;23.7;20.3;;;;;;;0.4;100.0;100810;;;;
2022/01/08 02:50:54;;;;;;;23.7;20.3;;;;;;;0.3;100.0;100820;;;;
2022/01/08 02:58:54;;;;;;;23.7;20.3;;;;;;;0.4;100.0;100820;;;;
2022/01/08 03:00:54;;;;;;;23.7;20.3;;;;;;;0.3;100.0;100820;;;;
2022/01/08 03:04:54;;;;;;;23.7;20.3;;;;;;;0.4;100.0;100820;;;;
2022/01/08 03:06:54;;;;;;;24.7;22.1;;;;;;;0.3;100.0;100820;;;;
2022/01/08 03:18:55;;;;;;;24.7;22.1;;;;;;;0.2;100.0;100820;;;;
2022/01/08 03:21:12;;;;;;;24.7;22.1;;;;;;;0.3;100.0;100820;;;;
2022/01/08 03:26:54;;;;;;;30.6;25.1;;;;;;;0.4;100.0;100820;;;;
2022/01/08 03:28:55;;;;;;;30.6;25.1;;;;;;;0.3;100.0;100820;;;;
2022/01/08 03:34:54;;;;;;;30.6;25.1;;;;;;;0.2;100.0;100820;;;;
2022/01/08 03:42:55;;;;;;;30.6;25.1;;;;;;;0.1;100.0;100830;;;;
2022/01/08 03:44:54;;;;;;;30.6;25.1;;;;;;;0.2;100.0;100830;;;;
2022/01/08 03:54:54;;;;;;;29.8;24.0;;;;;;;0.1;100.0;100830;;;;
2022/01/08 04:00:54;;;;;;;29.8;24.0;;;;;;;0.2;100.0;100830;;;;
2022/01/08 04:02:54;;;;;;;29.8;24.0;;;;;;;0.0;100.0;100830;;;;
2022/01/08 04:04:54;;;;;;;32.6;26.1;;;;;;;0.1;100.0;100830;;;;
2022/01/08 04:08:57;;;;;;;32.6;26.1;;;;;;;0.2;100.0;100830;;;;
2022/01/08 04:10:54;;;;;;;32.6;26.1;;;;;;;0.1;100.0;100830;;;;
2022/01/08 04:16:54;;;;;;;32.6;26.1;;;;;;;0.0;100.0;100840;;;;
2022/01/08 04:18:54;;;;;;;32.6;26.1;;;;;;;-0.1;100.0;100840;;;;
2022/01/08 04:28:54;;;;;;;29.0;24.6;;;;;;;-0.0;100.0;100850;;;;
2022/01/08 04:30:54;;;;;;;29.0;24.6;;;;;;;0.0;100.0;100860;;;;
2022/01/08 04:32:54;;;;;;;29.0;24.6;;;;;;;-0.0;100.0;100850;;;;
2022/01/08 04:36:54;;;;;;;29.0;24.6;;;;;;;0.0;100.0;100850;;;;
2022/01/08 04:38:54;;;;;;;29.0;24.6;;;;;;;-0.1;100.0;100850;;;;
2022/01/08 04:44:54;;;;;;;28.5;22.2;;;;;;;-0.0;100.0;100860;;;;
2022/01/08 04:50:54;;;;;;;28.5;22.2;;;;;;;-0.1;100.0;100860;;;;
2022/01/08 05:00:54;;;;;;;28.5;22.2;;;;;;;-0.0;100.0;100870;;;;
2022/01/08 05:02:54;;;;;;;28.5;22.2;;;;;;;-0.1;100.0;100870;;;;
2022/01/08 05:12:54;;;;;;;27.2;21.1;;;;;;;-0.2;100.0;100880;;;;
2022/01/08 05:14:56;;;;;;;27.2;21.1;;;;;;;-0.1;100.0;100880;;;;
2022/01/08 05:34:54;;;;;;;26.1;22.1;;;;;;;-0.0;100.0;100870;;;;
2022/01/08 05:36:54;;;;;;;26.1;22.1;;;;;;;-0.1;100.0;100870;;;;
2022/01/08 05:38:54;;;;;;;26.1;22.1;;;;;;;0.0;100.0;100880;;;;
2022/01/08 05:40:55;;;;;;;26.1;22.1;;;;;;;-0.1;100.0;100880;;;;
2022/01/08 05:42:54;;;;;;;26.1;22.1;;;;;;;-0.0;100.0;100880;;;;
2022/01/08 05:44:54;;;;;;;28.5;23.0;;;;;;;-0.1;100.0;100880;;;;
2022/01/08 05:48:54;;;;;;;28.5;23.0;;;;;;;-0.2;100.0;100880;;;;
2022/01/08 05:50:54;;;;;;;28.5;23.0;;;;;;;-0.1;100.0;100870;;;;
2022/01/08 05:54:54;;;;;;;28.5;23.0;;;;;;;-0.0;100.0;100890;;;;
2022/01/08 05:56:54;;;;;;;28.5;23.0;;;;;;;-0.1;100.0;100900;;;;
2022/01/08 06:02:54;;;;;;;28.5;23.0;;;;;;;-0.2;100.0;100900;;;;
2022/01/08 06:04:54;;;;;;;30.7;25.2;;;;;;;-0.1;100.0;100900;;;;
2022/01/08 06:20:55;;;;;;;30.7;25.2;;;;;;;-0.2;100.0;100920;;;;
2022/01/08 06:22:54;;;;;;;30.7;25.2;;;;;;;-0.1;100.0;100910;;;;
2022/01/08 06:34:54;;;;;;;28.6;23.6;;;;;;;-0.0;100.0;100920;;;;
2022/01/08 06:36:54;;;;;;;28.6;23.6;;;;;;;0.0;100.0;100910;;;;
2022/01/08 06:38:54;;;;;;;28.6;23.6;;;;;;;-0.0;100.0;100920;;;;
2022/01/08 06:40:54;;;;;;;28.6;23.6;;;;;;;0.1;100.0;100910;;;;
2022/01/08 06:42:54;;;;;;;28.6;23.6;;;;;;;0.0;100.0;100910;;;;
2022/01/08 06:44:54;;;;;;;27.4;23.1;;;;;;;0.1;100.0;100910;;;;
2022/01/08 06:46:54;;;;;;;27.4;23.1;;;;;;;0.2;100.0;100900;;;;
2022/01/08 06:50:54;;;;;;;27.4;23.1;;;;;;;0.3;100.0;100900;;;;
2022/01/08 06:52:54;;;;;;;27.4;23.1;;;;;;;0.2;100.0;100900;;;;
2022/01/08 06:54:56;;;;;;;27.4;23.1;;;;;;;0.3;100.0;100900;;;;
2022/01/08 06:58:55;;;;;;;27.4;23.1;;;;;;;0.2;100.0;100900;;;;
2022/01/08 07:06:54;;;;;;;27.9;23.6;;;;;;;0.3;100.0;100900;;;;
2022/01/08 07:10:54;;;;;;;27.9;23.6;;;;;;;0.2;100.0;100890;;;;
2022/01/08 07:14:54;;;;;;;27.9;23.6;;;;;;;0.3;100.0;100900;;;;
2022/01/08 07:16:54;;;;;;;27.9;23.6;;;;;;;0.2;100.0;100910;;;;
2022/01/08 07:24:54;;;;;;;27.3;23.0;;;;;;;0.3;100.0;100910;;;;
2022/01/08 07:26:54;;;;;;;27.3;23.0;;;;;;;0.2;100.0;100900;;;;
2022/01/08 07:36:54;;;;;;;27.3;23.0;;;;;;;0.3;100.0;100900;;;;
2022/01/08 07:44:54;;;;;;;29.3;24.0;;;;;;;0.4;100.0;100900;;;;
2022/01/08 07:46:54;;;;;;;29.3;24.0;;;;;;;0.3;100.0;100900;;;;
2022/01/08 07:48:54;;;;;;;29.3;24.0;;;;;;;0.2;100.0;100900;;;;
2022/01/08 07:50:54;;;;;;;29.3;24.0;;;;;;;0.3;100.0;100900;;;;
2022/01/08 08:00:54;;;;;;;29.3;24.0;;;;;;;0.2;100.0;100900;;;;
2022/01/08 08:04:54;;;;;;;30.4;24.5;;;;;;;0.4;100.0;100890;;;;
2022/01/08 08:08:54;;;;;;;30.4;24.5;;;;;;;0.5;100.0;100890;;;;
2022/01/08 08:10:54;;;;;;;30.4;24.5;;;;;;;0.4;100.0;100890;;;;
2022/01/08 08:14:54;;;;;;;30.4;24.5;;;;;;;0.5;100.0;100880;;;;
2022/01/08 08:28:54;;;;;;;29.4;22.4;;;;;;;0.4;100.0;100880;;;;
2022/01/08 08:30:54;;;;;;;29.4;22.4;;;;;;;0.8;100.0;100870;;;;
2022/01/08 08:32:54;;;;;;;29.4;22.4;;;;;;;0.7;100.0;100870;;;;
2022/01/08 08:34:54;;;;;;;29.4;22.4;;;;;;;0.6;100.0;100870;;;;
2022/01/08 08:40:54;;;;;;;29.4;22.4;;;;;;;0.8;100.0;100870;;;;
2022/01/08 08:42:54;;;;;;;29.4;22.4;;;;;;;0.6;100.0;100870;;;;
2022/01/08 08:44:54;;;;;;;26.4;20.9;;;;;;;0.8;100.0;100860;;;;
2022/01/08 08:50:54;;;;;;;26.4;20.9;;;;;;;0.7;100.0;100860;;;;
2022/01/08 08:54:54;;;;;;;26.4;20.9;;;;;;;0.8;100.0;100870;;;;
2022/01/08 08:56:54;;;;;;;26.4;20.9;;;;;;;0.9;100.0;100860;;;;
2022/01/08 08:58:54;;;;;;;26.4;20.9;;;;;;;0.8;100.0;100860;;;;
2022/01/08 09:04:54;;;;;;;25.9;20.0;;;;;;;0.9;100.0;100860;;;;
2022/01/08 09:10:54;;;;;;;25.9;20.0;;;;;;;1.0;100.0;100860;;;;
2022/01/08 09:12:54;;;;;;;25.9;20.0;;;;;;;0.9;100.0;100850;;;;
2022/01/08 09:14:54;;;;;;;25.9;20.0;;;;;;;1.0;100.0;100850;;;;
2022/01/08 09:20:54;;;;;;;25.9;20.0;;;;;;;1.1;100.0;100850;;;;
2022/01/08 09:22:54;;;;;;;25.9;20.0;;;;;;;1.0;100.0;100850;;;;
2022/01/08 09:24:54;;;;;;;28.9;22.7;;;;;;;1.1;100.0;100850;;;;
2022/01/08 09:32:54;;;;;;;28.9;22.7;;;;;;;1.2;100.0;100850;;;;
2022/01/08 09:36:54;;;;;;;28.9;22.7;;;;;;;1.1;100.0;100850;;;;
2022/01/08 09:38:54;;;;;;;28.9;22.7;;;;;;;1.2;100.0;100850;;;;
2022/01/08 09:40:54;;;;;;;28.9;22.7;;;;;;;1.4;100.0;100840;;;;
2022/01/08 09:46:54;;;;;;;31.4;23.7;;;;;;;1.5;100.0;100820;;;;
2022/01/08 09:56:54;;;;;;;31.4;23.7;;;;;;;1.6;100.0;100810;;;;
2022/01/08 10:02:54;;;;;;;31.4;23.7;;;;;;;1.7;100.0;100790;;;;
2022/01/08 10:08:54;;;;;;;30.8;25.5;;;;;;;1.8;100.0;100770;;;;
2022/01/08 10:18:54;;;;;;;30.8;25.5;;;;;;;1.9;100.0;100750;;;;
2022/01/08 10:26:54;;;;;;;35.3;26.0;;;;;;;1.8;100.0;100730;;;;
2022/01/08 10:28:54;;;;;;;35.3;26.0;;;;;;;1.9;100.0;100720;;;;
2022/01/08 10:30:54;;;;;;;35.3;26.0;;;;;;;2.0;100.0;100700;;;;
2022/01/08 10:36:54;;;;;;;35.3;26.0;;;;;;;2.1;100.0;100700;;;;
2022/01/08 10:38:54;;;;;;;35.3;26.0;;;;;;;2.0;100.0;100690;;;;
2022/01/08 10:40:54;;;;;;;35.3;26.0;;;;;;;2.1;100.0;100690;;;;
2022/01/08 10:42:54;;;;;;;35.3;26.0;;;;;;;2.2;100.0;100690;;;;
2022/01/08 10:44:54;;;;;;;33.8;25.0;;;;;;;2.1;100.0;100680;;;;
2022/01/08 10:46:54;;;;;;;33.8;25.0;;;;;;;2.2;100.0;100680;;;;
2022/01/08 10:50:54;;;;;;;33.8;25.0;;;;;;;2.1;100.0;100670;;;;
2022/01/08 10:52:54;;;;;;;33.8;25.0;;;;;;;2.2;100.0;100670;;;;
2022/01/08 10:58:55;;;;;;;33.8;25.0;;;;;;;2.3;100.0;100650;;;;
2022/01/08 11:00:54;;;;;;;33.8;25.0;;;;;;;2.2;100.0;100640;;;;
2022/01/08 11:02:54;;;;;;;33.7;24.2;;;;;;;2.3;100.0;100640;;;;
2022/01/08 11:04:54;;;;;;;33.7;24.2;;;;;;;2.4;100.0;100630;;;;
2022/01/08 11:08:54;;;;;;;33.7;24.2;;;;;;;2.3;100.0;100620;;;;
2022/01/08 11:10:54;;;;;;;33.7;24.2;;;;;;;2.4;100.0;100610;;;;
2022/01/08 11:12:54;;;;;;;33.7;24.2;;;;;;;2.3;100.0;100610;;;;
2022/01/08 11:16:54;;;;;;;33.7;24.2;;;;;;;2.5;100.0;100610;;;;
2022/01/08 11:20:54;;;;;;;33.7;24.2;;;;;;;2.6;100.0;100600;;;;
2022/01/08 11:22:54;;;;;;;25.8;19.6;;;;;;;2.7;100.0;100600;;;;
2022/01/08 11:33:08;;;;;;;25.8;19.6;;;;;;;2.8;100.0;100570;;;;
2022/01/08 11:42:54;;;;;;;23.7;18.7;;;;;;;3.0;100.0;100550;;;;
2022/01/08 11:58:54;;;;;;;23.7;18.7;;;;;;;3.1;100.0;100500;;;;
2022/01/08 12:10:56;;;;;;;20.4;16.2;;;;;;;3.2;100.0;100460;;;;
2022/01/08 12:22:54;;;;;;;18.3;13.4;;;;;;;3.3;100.0;100420;;;;
2022/01/08 12:26:54;;;;;;;18.3;13.4;;;;;;;3.2;100.0;100410;;;;
2022/01/08 12:36:54;;;;;;;18.3;13.4;;;;;;;3.1;100.0;100370;;;;
2022/01/08 12:38:54;;;;;;;18.3;13.4;;;;;;;3.3;100.0;100360;;;;
2022/01/08 12:44:54;;;;;;;13.6;10.3;;;;;;;3.2;100.0;100340;;;;
2022/01/08 12:46:54;;;;;;;13.6;10.3;;;;;;;3.3;100.0;100330;;;;
2022/01/08 12:48:54;;;;;;;13.6;10.3;;;;;;;3.2;100.0;100320;;;;
2022/01/08 12:50:55;;;;;;;13.6;10.3;;;;;;;3.3;100.0;100310;;;;
2022/01/08 13:04:54;;;;;;;8.2;6.8;;;;;;;3.4;100.0;100250;;;;
2022/01/08 13:10:57;;;;;;;8.2;6.8;;;;;;;3.5;100.0;100230;;;;
2022/01/08 13:14:54;;;;;;;8.2;6.8;;;;;;;3.3;100.0;100220;;;;
2022/01/08 13:16:54;;;;;;;8.2;6.8;;;;;;;3.4;100.0;100210;;;;
2022/01/08 13:18:54;;;;;;;8.2;6.8;;;;;;;3.3;100.0;100200;;;;
2022/01/08 13:20:54;;;;;;;8.2;6.8;;;;;;;3.4;100.0;100200;;;;
2022/01/08 13:22:54;;;;;;;6.8;5.9;;;;;;;3.5;100.0;100180;;;;
2022/01/08 13:24:54;;;;;;;6.8;5.9;;;;;;;3.4;100.0;100180;;;;
2022/01/08 13:26:54;;;;;;;6.8;5.9;;;;;;;3.2;100.0;100170;;;;
2022/01/08 13:29:02;;;;;;;6.8;5.9;;;;;;;3.3;100.0;100170;;;;
2022/01/08 13:30:54;;;;;;;6.8;5.9;;;;;;;3.4;100.0;100170;;;;
2022/01/08 13:32:54;;;;;;;6.8;5.9;;;;;;;3.3;100.0;100160;;;;
2022/01/08 13:36:54;;;;;;;6.8;5.9;;;;;;;3.4;100.0;100130;;;;
2022/01/08 13:42:54;;;;;;;5.7;5.0;;;;;;;3.3;100.0;100120;;;;
2022/01/08 13:48:54;;;;;;;5.7;5.0;;;;;;;3.2;100.0;100110;;;;
2022/01/08 13:50:58;;;;;;;5.7;5.0;;;;;;;3.1;100.0;100120;;;;
2022/01/08 13:52:57;;;;;;;5.7;5.0;;;;;;;3.2;100.0;100110;;;;
2022/01/08 14:02:54;;;;;;;7.0;5.5;;;;;;;3.1;100.0;100080;;;;
2022/01/08 14:06:55;;;;;;;7.0;5.5;;;;;;;3.2;100.0;100070;;;;
2022/01/08 14:10:54;;;;;;;7.0;5.5;;;;;;;3.1;100.0;100040;;;;
2022/01/08 14:12:54;;;;;;;7.0;5.5;;;;;;;3.0;100.0;100040;;;;
2022/01/08 14:17:00;;;;;;;7.0;5.5;;;;;;;3.1;100.0;100030;;;;
2022/01/08 14:22:54;;;;;;;6.3;5.7;;;;;;;3.0;100.0;100010;;;;
2022/01/08 14:26:54;;;;;;;6.3;5.7;;;;;;;2.9;100.0;99990;;;;
2022/01/08 14:30:54;;;;;;;6.3;5.7;;;;;;;3.0;100.0;99990;;;;
2022/01/08 14:32:54;;;;;;;6.3;5.7;;;;;;;3.1;100.0;99990;;;;
2022/01/08 14:36:56;;;;;;;6.3;5.7;;;;;;;3.0;100.0;99970;;;;
2022/01/08 14:40:56;;;;;;;6.3;5.7;;;;;;;2.9;100.0;99950;;;;
2022/01/08 14:42:54;;;;;;;5.8;5.2;;;;;;;2.8;100.0;99950;;;;
2022/01/08 14:46:54;;;;;;;5.8;5.2;;;;;;;2.9;100.0;99930;;;;
2022/01/08 14:48:54;;;;;;;5.8;5.2;;;;;;;3.0;100.0;99920;;;;
2022/01/08 14:50:54;;;;;;;5.8;5.2;;;;;;;2.9;100.0;99920;;;;
2022/01/08 14:56:54;;;;;;;5.8;5.2;;;;;;;3.0;100.0;99890;;;;
2022/01/08 14:58:55;;;;;;;5.8;5.2;;;;;;;2.9;100.0;99870;;;;
2022/01/08 15:04:54;;;;;;;6.0;5.5;;;;;;;3.0;100.0;99860;;;;
2022/01/08 15:08:54;;;;;;;6.0;5.5;;;;;;;2.9;100.0;99850;;;;
2022/01/08 15:16:54;;;;;;;6.0;5.5;;;;;;;3.0;100.0;99820;;;;
2022/01/08 15:20:54;;;;;;;6.0;5.5;;;;;;;2.9;100.0;99790;;;;
2022/01/08 15:24:54;;;;;;;6.8;6.1;;;;;;;3.0;100.0;99790;;;;
2022/01/08 15:28:54;;;;;;;6.8;6.1;;;;;;;2.9;100.0;99770;;;;
2022/01/08 15:30:54;;;;;;;6.8;6.1;;;;;;;3.1;100.0;99770;;;;
2022/01/08 15:34:54;;;;;;;6.8;6.1;;;;;;;3.0;100.0;99750;;;;
2022/01/08 15:36:54;;;;;;;6.8;6.1;;;;;;;3.1;100.0;99740;;;;
2022/01/08 15:38:54;;;;;;;6.8;6.1;;;;;;;3.0;100.0;99730;;;;
2022/01/08 15:40:54;;;;;;;6.8;6.1;;;;;;;3.1;100.0;99730;;;;
2022/01/08 15:42:55;;;;;;;7.0;6.4;;;;;;;3.0;100.0;99720;;;;
2022/01/08 15:44:54;;;;;;;7.0;6.4;;;;;;;3.1;100.0;99720;;;;
2022/01/08 15:46:55;;;;;;;7.0;6.4;;;;;;;3.0;100.0;99710;;;;
2022/01/08 15:52:54;;;;;;;7.0;6.4;;;;;;;3.1;100.0;99680;;;;
2022/01/08 15:56:54;;;;;;;7.0;6.4;;;;;;;3.2;100.0;99670;;;;
2022/01/08 16:08:54;;;;;;;7.4;6.8;;;;;;;3.3;100.0;99640;;;;
2022/01/08 16:14:54;;;;;;;7.4;6.8;;;;;;;3.4;100.0;99620;;;;
2022/01/08 16:18:54;;;;;;;7.4;6.8;;;;;;;3.5;100.0;99600;;;;
2022/01/08 16:26:54;;;;;;;6.3;5.7;;;;;;;3.6;100.0;99580;;;;
2022/01/08 16:28:54;;;;;;;6.3;5.7;;;;;;;3.5;100.0;99570;;;;
2022/01/08 16:32:54;;;;;;;6.3;5.7;;;;;;;3.6;100.0;99550;;;;
2022/01/08 16:34:54;;;;;;;6.3;5.7;;;;;;;3.7;100.0;99540;;;;
2022/01/08 16:40:54;;;;;;;6.3;5.7;;;;;;;3.8;100.0;99530;;;;
2022/01/08 16:44:54;;;;;;;6.0;5.5;;;;;;;3.7;100.0;99510;;;;
2022/01/08 16:48:54;;;;;;;6.0;5.5;;;;;;;3.8;100.0;99500;;;;
2022/01/08 16:52:54;;;;;;;6.0;5.5;;;;;;;3.7;100.0;99480;;;;
2022/01/08 16:54:54;;;;;;;6.0;5.5;;;;;;;3.8;100.0;99470;;;;
2022/01/08 17:02:54;;;;;;;4.5;4.1;;;;;;;3.9;100.0;99440;;;;
2022/01/08 17:10:56;;;;;;;4.5;4.1;;;;;;;4.0;100.0;99410;;;;
2022/01/08 17:14:54;;;;;;;4.5;4.1;;;;;;;3.9;100.0;99400;;;;
2022/01/08 17:18:54;;;;;;;4.5;4.1;;;;;;;4.0;100.0;99390;;;;
2022/01/08 17:26:54;;;;;;;4.5;4.2;;;;;;;4.1;100.0;99370;;;;
2022/01/08 17:34:54;;;;;;;4.5;4.2;;;;;;;4.2;100.0;99340;;;;
2022/01/08 17:46:54;;;;;;;4.3;4.0;;;;;;;4.3;100.0;99300;;;;
2022/01/08 17:58:54;;;;;;;4.3;4.0;;;;;;;4.4;100.0;99260;;;;
2022/01/08 18:00:54;;;;;;;4.3;4.0;;;;;;;4.3;100.0;99250;;;;
2022/01/08 18:02:54;;;;;;;4.1;3.8;;;;;;;4.4;100.0;99250;;;;
2022/01/08 18:10:54;;;;;;;4.1;3.8;;;;;;;4.5;100.0;99230;;;;
2022/01/08 18:14:54;;;;;;;4.1;3.8;;;;;;;4.6;100.0;99210;;;;
2022/01/08 18:20:54;;;;;;;4.1;3.8;;;;;;;4.5;100.0;99200;;;;
2022/01/08 18:24:54;;;;;;;4.1;3.8;;;;;;;4.6;100.0;99180;;;;
2022/01/08 18:30:54;;;;;;;4.1;3.8;;;;;;;4.7;100.0;99170;;;;
2022/01/08 18:32:54;;;;;;;4.1;3.8;;;;;;;4.6;100.0;99160;;;;
2022/01/08 18:34:54;;;;;;;4.1;3.8;;;;;;;4.7;100.0;99150;;;;
2022/01/08 18:42:54;;;;;;;3.5;3.3;;;;;;;4.6;100.0;99130;;;;
2022/01/08 18:44:54;;;;;;;3.5;3.3;;;;;;;4.7;100.0;99120;;;;
2022/01/08 18:52:54;;;;;;;3.5;3.3;;;;;;;4.6;100.0;99100;;;;
2022/01/08 18:54:54;;;;;;;3.5;3.3;;;;;;;4.7;100.0;99090;;;;
2022/01/08 18:56:54;;;;;;;3.5;3.3;;;;;;;4.6;100.0;99080;;;;
2022/01/08 18:58:54;;;;;;;3.5;3.3;;;;;;;4.7;100.0;99080;;;;
2022/01/08 19:06:54;;;;;;;3.4;3.2;;;;;;;4.8;100.0;99060;;;;
2022/01/08 19:08:54;;;;;;;3.4;3.2;;;;;;;4.7;100.0;99050;;;;
2022/01/08 19:10:55;;;;;;;3.4;3.2;;;;;;;4.8;100.0;99040;;;;
2022/01/08 19:32:54;;;;;;;3.5;3.3;;;;;;;4.7;100.0;98990;;;;
2022/01/08 19:38:54;;;;;;;3.5;3.3;;;;;;;4.8;100.0;98970;;;;
2022/01/08 19:40:54;;;;;;;3.3;3.1;;;;;;;4.7;100.0;98960;;;;
2022/01/08 19:46:54;;;;;;;3.3;3.1;;;;;;;4.8;100.0;98940;;;;
2022/01/08 19:50:54;;;;;;;3.3;3.1;;;;;;;4.7;100.0;98930;;;;
2022/01/08 19:54:57;;;;;;;3.3;3.1;;;;;;;4.8;100.0;98910;;;;
2022/01/08 19:56:54;;;;;;;3.3;3.1;;;;;;;4.7;100.0;98910;;;;
2022/01/08 20:02:54;;;;;;;3.4;3.2;;;;;;;4.8;100.0;98890;;;;
2022/01/08 20:04:54;;;;;;;3.4;3.2;;;;;;;4.7;100.0;98890;;;;
2022/01/08 20:06:54;;;;;;;3.4;3.2;;;;;;;4.8;100.0;98890;;;;
2022/01/08 20:12:54;;;;;;;3.4;3.2;;;;;;;4.7;100.0;98860;;;;
2022/01/08 20:16:58;;;;;;;3.4;3.2;;;;;;;4.8;100.0;98850;;;;
2022/01/08 20:22:54;;;;;;;3.3;3.1;;;;;;;4.7;100.0;98840;;;;
2022/01/08 20:26:54;;;;;;;3.3;3.1;;;;;;;4.8;100.0;98830;;;;
2022/01/08 20:46:54;;;;;;;3.2;3.0;;;;;;;4.7;100.0;98770;;;;
2022/01/08 20:50:54;;;;;;;3.2;3.0;;;;;;;4.8;100.0;98750;;;;
2022/01/08 21:04:54;;;;;;;3.0;2.9;;;;;;;4.9;100.0;98720;;;;
2022/01/08 21:14:54;;;;;;;3.0;2.9;;;;;;;5.0;100.0;98700;;;;
2022/01/08 21:22:54;;;;;;;3.1;2.9;;;;;;;4.9;100.0;98690;;;;
2022/01/08 21:26:54;;;;;;;3.1;2.9;;;;;;;5.0;100.0;98680;;;;
2022/01/08 21:42:54;;;;;;;3.0;2.8;;;;;;;5.2;100.0;98660;;;;
2022/01/08 21:46:54;;;;;;;3.0;2.8;;;;;;;5.1;100.0;98650;;;;
2022/01/08 21:58:54;;;;;;;3.0;2.8;;;;;;;5.2;100.0;98620;;;;
2022/01/08 22:08:54;;;;;;;3.1;2.9;;;;;;;5.1;100.0;98590;;;;
2022/01/08 22:10:54;;;;;;;3.1;2.9;;;;;;;5.2;100.0;98590;;;;
2022/01/08 22:14:54;;;;;;;3.1;2.9;;;;;;;5.1;100.0;98590;;;;
2022/01/08 22:22:56;;;;;;;3.2;3.0;;;;;;;5.0;100.0;98570;;;;
2022/01/08 22:24:54;;;;;;;3.2;3.0;;;;;;;5.1;100.0;98570;;;;
2022/01/08 22:26:54;;;;;;;3.2;3.0;;;;;;;5.0;100.0;98570;;;;
2022/01/08 22:28:54;;;;;;;3.2;3.0;;;;;;;5.1;100.0;98560;;;;
2022/01/08 22:30:54;;;;;;;3.2;3.0;;;;;;;5.0;100.0;98550;;;;
2022/01/08 22:34:56;;;;;;;3.2;3.0;;;;;;;5.1;100.0;98550;;;;
2022/01/08 22:36:54;;;;;;;3.2;3.0;;;;;;;5.0;100.0;98540;;;;
2022/01/08 22:42:54;;;;;;;3.7;3.4;;;;;;;4.9;100.0;98540;;;;
2022/01/08 22:46:54;;;;;;;3.7;3.4;;;;;;;5.0;100.0;98530;;;;
2022/01/08 22:54:54;;;;;;;3.7;3.4;;;;;;;5.1;100.0;98530;;;;
2022/01/08 22:56:54;;;;;;;3.7;3.4;;;;;;;5.0;100.0;98530;;;;
2022/01/08 22:58:54;;;;;;;3.7;3.4;;;;;;;5.1;100.0;98530;;;;
2022/01/08 23:00:54;;;;;;;4.0;3.7;;;;;;;5.0;100.0;98530;;;;
2022/01/08 23:02:54;;;;;;;4.0;3.7;;;;;;;5.1;100.0;98530;;;;
2022/01/08 23:12:54;;;;;;;4.0;3.7;;;;;;;5.0;100.0;98540;;;;
2022/01/08 23:14:54;;;;;;;4.0;3.7;;;;;;;5.1;100.0;98530;;;;
2022/01/08 23:40:54;;;;;;;6.1;5.7;;;;;;;5.2;100.0;98520;;;;
2022/01/08 23:49:00;;;;;;;6.1;5.7;;;;;;;5.3;100.0;98520;;;;
2022/01/08 23:50:58;;;;;;;6.1;5.7;;;;;;;5.2;100.0;98520;;;;
2022/01/08 23:56:54;;;;;;;6.1;5.7;;;;;;;5.4;100.0;98520;;;;
